sensor_id;sensor_type;location;lat;lon;timestamp;P1;durP1;ratioP1;P2;durP2;ratioP2
3131;SDS011;62090;52.330;9.104;2023-01-26T00:00:53;132.00;;;67.18;;
3131;SDS011;62090;52.330;9.104;2023-01-26T00:03:23;127.90;;;64.88;;
3131;SDS011;62090;52.330;9.104;2023-01-26T00:05:53;123.15;;;64.20;;
3131;SDS011;62090;52.330;9.104;2023-01-26T00:08:23;132.30;;;66.07;;
3131;SDS011;62090;52.330;9.104;2023-01-26T00:10:55;131.93;;;65.85;;
3131;SDS011;62090;52.330;9.104;2023-01-26T00:13:25;123.93;;;64.40;;
3131;SDS011;62090;52.330;9.104;2023-01-26T00:15:55;128.70;;;63.60;;
3131;SDS011;62090;52.330;9.104;2023-01-26T00:18:24;129.80;;;65.97;;
3131;SDS011;62090;52.330;9.104;2023-01-26T00:20:54;128.30;;;65.27;;
3131;SDS011;62090;52.330;9.104;2023-01-26T00:23:25;132.18;;;64.78;;
3131;SDS011;62090;52.330;9.104;2023-01-26T00:25:58;133.70;;;68.20;;
3131;SDS011;62090;52.330;9.104;2023-01-26T00:28:28;137.60;;;68.23;;
3131;SDS011;62090;52.330;9.104;2023-01-26T00:31:02;127.25;;;63.17;;
3131;SDS011;62090;52.330;9.104;2023-01-26T00:33:35;125.25;;;63.47;;
3131;SDS011;62090;52.330;9.104;2023-01-26T00:36:05;130.77;;;64.40;;
3131;SDS011;62090;52.330;9.104;2023-01-26T00:38:35;137.00;;;67.75;;
3131;SDS011;62090;52.330;9.104;2023-01-26T00:41:09;140.57;;;69.00;;
3131;SDS011;62090;52.330;9.104;2023-01-26T00:44:00;131.80;;;66.65;;
3131;SDS011;62090;52.330;9.104;2023-01-26T00:46:30;132.13;;;67.85;;
3131;SDS011;62090;52.330;9.104;2023-01-26T00:49:00;134.98;;;66.18;;
3131;SDS011;62090;52.330;9.104;2023-01-26T00:51:32;140.80;;;69.68;;
3131;SDS011;62090;52.330;9.104;2023-01-26T00:54:02;126.70;;;65.10;;
3131;SDS011;62090;52.330;9.104;2023-01-26T00:56:35;129.98;;;66.20;;
3131;SDS011;62090;52.330;9.104;2023-01-26T00:59:04;128.50;;;64.78;;
3131;SDS011;62090;52.330;9.104;2023-01-26T01:01:35;134.30;;;66.43;;
3131;SDS011;62090;52.330;9.104;2023-01-26T01:04:05;132.25;;;63.40;;
3131;SDS011;62090;52.330;9.104;2023-01-26T01:06:35;138.30;;;64.87;;
3131;SDS011;62090;52.330;9.104;2023-01-26T01:09:04;122.65;;;63.25;;
3131;SDS011;62090;52.330;9.104;2023-01-26T01:11:37;118.50;;;60.80;;
3131;SDS011;62090;52.330;9.104;2023-01-26T01:14:09;125.30;;;63.33;;
3131;SDS011;62090;52.330;9.104;2023-01-26T01:16:38;124.35;;;62.60;;
3131;SDS011;62090;52.330;9.104;2023-01-26T01:19:10;131.18;;;64.43;;
3131;SDS011;62090;52.330;9.104;2023-01-26T01:21:42;118.13;;;58.45;;
3131;SDS011;62090;52.330;9.104;2023-01-26T01:24:13;117.90;;;60.22;;
3131;SDS011;62090;52.330;9.104;2023-01-26T01:26:45;122.78;;;61.35;;
3131;SDS011;62090;52.330;9.104;2023-01-26T01:29:15;121.93;;;60.22;;
3131;SDS011;62090;52.330;9.104;2023-01-26T01:31:44;121.18;;;60.75;;
3131;SDS011;62090;52.330;9.104;2023-01-26T01:34:14;127.55;;;62.40;;
3131;SDS011;62090;52.330;9.104;2023-01-26T01:36:44;119.82;;;62.17;;
3131;SDS011;62090;52.330;9.104;2023-01-26T01:39:13;114.22;;;58.88;;
3131;SDS011;62090;52.330;9.104;2023-01-26T01:41:46;124.75;;;63.10;;
3131;SDS011;62090;52.330;9.104;2023-01-26T01:44:17;115.10;;;60.78;;
3131;SDS011;62090;52.330;9.104;2023-01-26T01:46:50;115.32;;;59.85;;
3131;SDS011;62090;52.330;9.104;2023-01-26T01:49:24;117.63;;;60.35;;
3131;SDS011;62090;52.330;9.104;2023-01-26T01:51:58;120.65;;;62.33;;
3131;SDS011;62090;52.330;9.104;2023-01-26T01:54:32;116.75;;;61.75;;
3131;SDS011;62090;52.330;9.104;2023-01-26T01:57:09;118.47;;;59.33;;
3131;SDS011;62090;52.330;9.104;2023-01-26T01:59:45;126.00;;;62.30;;
3131;SDS011;62090;52.330;9.104;2023-01-26T02:02:22;121.93;;;60.40;;
3131;SDS011;62090;52.330;9.104;2023-01-26T02:04:52;120.30;;;62.80;;
3131;SDS011;62090;52.330;9.104;2023-01-26T02:07:25;124.80;;;63.03;;
3131;SDS011;62090;52.330;9.104;2023-01-26T02:09:57;134.40;;;66.30;;
3131;SDS011;62090;52.330;9.104;2023-01-26T02:12:44;128.68;;;64.03;;
3131;SDS011;62090;52.330;9.104;2023-01-26T02:15:16;121.80;;;63.07;;
3131;SDS011;62090;52.330;9.104;2023-01-26T02:17:46;130.70;;;64.68;;
3131;SDS011;62090;52.330;9.104;2023-01-26T02:20:17;137.63;;;67.57;;
3131;SDS011;62090;52.330;9.104;2023-01-26T02:22:54;127.30;;;62.20;;
3131;SDS011;62090;52.330;9.104;2023-01-26T02:25:30;132.10;;;66.87;;
3131;SDS011;62090;52.330;9.104;2023-01-26T02:28:11;148.87;;;67.27;;
3131;SDS011;62090;52.330;9.104;2023-01-26T02:30:40;141.53;;;65.83;;
3131;SDS011;62090;52.330;9.104;2023-01-26T02:33:13;133.95;;;65.40;;
3131;SDS011;62090;52.330;9.104;2023-01-26T02:35:43;133.75;;;64.70;;
3131;SDS011;62090;52.330;9.104;2023-01-26T02:38:13;132.40;;;65.60;;
3131;SDS011;62090;52.330;9.104;2023-01-26T02:40:43;151.13;;;68.50;;
3131;SDS011;62090;52.330;9.104;2023-01-26T02:43:22;138.98;;;66.57;;
3131;SDS011;62090;52.330;9.104;2023-01-26T02:45:51;138.75;;;66.75;;
3131;SDS011;62090;52.330;9.104;2023-01-26T02:48:21;144.77;;;67.17;;
3131;SDS011;62090;52.330;9.104;2023-01-26T02:51:04;149.90;;;67.00;;
3131;SDS011;62090;52.330;9.104;2023-01-26T02:53:34;147.13;;;67.87;;
3131;SDS011;62090;52.330;9.104;2023-01-26T02:56:04;148.65;;;70.30;;
3131;SDS011;62090;52.330;9.104;2023-01-26T02:58:34;148.53;;;67.40;;
3131;SDS011;62090;52.330;9.104;2023-01-26T03:01:04;159.07;;;70.90;;
3131;SDS011;62090;52.330;9.104;2023-01-26T03:03:45;151.82;;;70.38;;
3131;SDS011;62090;52.330;9.104;2023-01-26T03:06:15;157.50;;;70.82;;
3131;SDS011;62090;52.330;9.104;2023-01-26T03:08:45;158.98;;;72.03;;
3131;SDS011;62090;52.330;9.104;2023-01-26T03:11:14;155.73;;;72.93;;
3131;SDS011;62090;52.330;9.104;2023-01-26T03:13:46;155.75;;;73.80;;
3131;SDS011;62090;52.330;9.104;2023-01-26T03:16:16;162.98;;;75.00;;
3131;SDS011;62090;52.330;9.104;2023-01-26T03:18:46;153.48;;;70.78;;
3131;SDS011;62090;52.330;9.104;2023-01-26T03:21:43;167.97;;;76.90;;
3131;SDS011;62090;52.330;9.104;2023-01-26T03:24:25;155.60;;;72.17;;
3131;SDS011;62090;52.330;9.104;2023-01-26T03:27:08;155.70;;;72.87;;
3131;SDS011;62090;52.330;9.104;2023-01-26T03:29:53;166.30;;;77.87;;
3131;SDS011;62090;52.330;9.104;2023-01-26T03:32:23;159.63;;;72.87;;
3131;SDS011;62090;52.330;9.104;2023-01-26T03:34:54;146.68;;;70.18;;
3131;SDS011;62090;52.330;9.104;2023-01-26T03:37:24;163.35;;;74.70;;
3131;SDS011;62090;52.330;9.104;2023-01-26T03:40:04;146.30;;;71.60;;
3131;SDS011;62090;52.330;9.104;2023-01-26T03:42:48;141.40;;;70.50;;
3131;SDS011;62090;52.330;9.104;2023-01-26T03:45:33;146.57;;;69.80;;
3131;SDS011;62090;52.330;9.104;2023-01-26T03:48:17;156.03;;;71.33;;
3131;SDS011;62090;52.330;9.104;2023-01-26T03:51:01;154.70;;;71.15;;
3131;SDS011;62090;52.330;9.104;2023-01-26T03:53:43;152.02;;;71.25;;
3131;SDS011;62090;52.330;9.104;2023-01-26T03:56:26;147.23;;;71.27;;
3131;SDS011;62090;52.330;9.104;2023-01-26T03:59:04;159.67;;;74.73;;
3131;SDS011;62090;52.330;9.104;2023-01-26T04:01:42;155.48;;;73.65;;
3131;SDS011;62090;52.330;9.104;2023-01-26T04:04:27;154.70;;;74.70;;
3131;SDS011;62090;52.330;9.104;2023-01-26T04:07:10;148.93;;;73.30;;
3131;SDS011;62090;52.330;9.104;2023-01-26T04:09:52;163.67;;;74.87;;
3131;SDS011;62090;52.330;9.104;2023-01-26T04:12:22;155.50;;;75.00;;
3131;SDS011;62090;52.330;9.104;2023-01-26T04:15:05;156.07;;;73.20;;
3131;SDS011;62090;52.330;9.104;2023-01-26T04:17:51;155.35;;;73.50;;
3131;SDS011;62090;52.330;9.104;2023-01-26T04:20:33;151.30;;;71.97;;
3131;SDS011;62090;52.330;9.104;2023-01-26T04:23:16;165.43;;;73.10;;
3131;SDS011;62090;52.330;9.104;2023-01-26T04:25:48;154.37;;;72.37;;
3131;SDS011;62090;52.330;9.104;2023-01-26T04:28:18;159.07;;;74.82;;
3131;SDS011;62090;52.330;9.104;2023-01-26T04:30:48;145.60;;;69.80;;
3131;SDS011;62090;52.330;9.104;2023-01-26T04:33:20;145.20;;;72.27;;
3131;SDS011;62090;52.330;9.104;2023-01-26T04:35:50;145.30;;;68.60;;
3131;SDS011;62090;52.330;9.104;2023-01-26T04:38:19;145.02;;;70.78;;
3131;SDS011;62090;52.330;9.104;2023-01-26T04:40:51;149.90;;;69.13;;
3131;SDS011;62090;52.330;9.104;2023-01-26T04:43:22;162.48;;;74.80;;
3131;SDS011;62090;52.330;9.104;2023-01-26T04:45:58;153.00;;;71.50;;
3131;SDS011;62090;52.330;9.104;2023-01-26T04:48:33;152.77;;;72.73;;
3131;SDS011;62090;52.330;9.104;2023-01-26T04:51:05;158.50;;;72.77;;
3131;SDS011;62090;52.330;9.104;2023-01-26T04:53:36;163.32;;;72.57;;
3131;SDS011;62090;52.330;9.104;2023-01-26T04:56:06;151.60;;;69.60;;
3131;SDS011;62090;52.330;9.104;2023-01-26T04:58:37;171.25;;;70.72;;
3131;SDS011;62090;52.330;9.104;2023-01-26T05:01:07;147.65;;;71.05;;
3131;SDS011;62090;52.330;9.104;2023-01-26T05:03:39;158.87;;;72.47;;
3131;SDS011;62090;52.330;9.104;2023-01-26T05:06:10;161.03;;;73.30;;
3131;SDS011;62090;52.330;9.104;2023-01-26T05:08:42;161.43;;;70.60;;
3131;SDS011;62090;52.330;9.104;2023-01-26T05:11:12;159.10;;;71.77;;
3131;SDS011;62090;52.330;9.104;2023-01-26T05:14:05;165.67;;;71.87;;
3131;SDS011;62090;52.330;9.104;2023-01-26T05:16:53;147.17;;;67.10;;
3131;SDS011;62090;52.330;9.104;2023-01-26T05:19:36;156.97;;;70.20;;
3131;SDS011;62090;52.330;9.104;2023-01-26T05:22:30;145.27;;;68.70;;
3131;SDS011;62090;52.330;9.104;2023-01-26T05:25:29;156.63;;;68.57;;
3131;SDS011;62090;52.330;9.104;2023-01-26T05:28:06;149.93;;;66.22;;
3131;SDS011;62090;52.330;9.104;2023-01-26T05:30:35;151.03;;;65.57;;
3131;SDS011;62090;52.330;9.104;2023-01-26T05:33:06;144.97;;;64.20;;
3131;SDS011;62090;52.330;9.104;2023-01-26T05:35:40;133.55;;;61.53;;
3131;SDS011;62090;52.330;9.104;2023-01-26T05:38:10;139.95;;;65.03;;
3131;SDS011;62090;52.330;9.104;2023-01-26T05:40:40;132.17;;;61.50;;
3131;SDS011;62090;52.330;9.104;2023-01-26T05:43:10;135.20;;;62.27;;
3131;SDS011;62090;52.330;9.104;2023-01-26T05:45:59;137.75;;;60.30;;
3131;SDS011;62090;52.330;9.104;2023-01-26T05:48:29;127.00;;;57.78;;
3131;SDS011;62090;52.330;9.104;2023-01-26T05:51:02;126.60;;;57.70;;
3131;SDS011;62090;52.330;9.104;2023-01-26T05:53:34;134.35;;;60.88;;
3131;SDS011;62090;52.330;9.104;2023-01-26T05:56:04;121.32;;;56.92;;
3131;SDS011;62090;52.330;9.104;2023-01-26T05:58:37;131.47;;;59.23;;
3131;SDS011;62090;52.330;9.104;2023-01-26T06:01:06;126.35;;;57.80;;
3131;SDS011;62090;52.330;9.104;2023-01-26T06:03:45;134.18;;;60.58;;
3131;SDS011;62090;52.330;9.104;2023-01-26T06:06:18;126.75;;;58.17;;
3131;SDS011;62090;52.330;9.104;2023-01-26T06:08:51;147.13;;;57.55;;
3131;SDS011;62090;52.330;9.104;2023-01-26T06:11:30;123.45;;;56.40;;
3131;SDS011;62090;52.330;9.104;2023-01-26T06:14:12;128.70;;;56.38;;
3131;SDS011;62090;52.330;9.104;2023-01-26T06:16:42;137.20;;;61.33;;
3131;SDS011;62090;52.330;9.104;2023-01-26T06:19:12;125.85;;;55.80;;
3131;SDS011;62090;52.330;9.104;2023-01-26T06:21:50;131.85;;;60.28;;
3131;SDS011;62090;52.330;9.104;2023-01-26T06:24:21;143.13;;;62.20;;
3131;SDS011;62090;52.330;9.104;2023-01-26T06:26:51;140.10;;;60.38;;
3131;SDS011;62090;52.330;9.104;2023-01-26T06:29:21;133.63;;;59.40;;
3131;SDS011;62090;52.330;9.104;2023-01-26T06:31:51;141.02;;;61.95;;
3131;SDS011;62090;52.330;9.104;2023-01-26T06:34:21;134.00;;;58.83;;
3131;SDS011;62090;52.330;9.104;2023-01-26T06:36:53;133.48;;;59.97;;
3131;SDS011;62090;52.330;9.104;2023-01-26T06:39:28;121.35;;;56.20;;
3131;SDS011;62090;52.330;9.104;2023-01-26T06:41:59;131.95;;;58.45;;
3131;SDS011;62090;52.330;9.104;2023-01-26T06:44:29;128.83;;;57.73;;
3131;SDS011;62090;52.330;9.104;2023-01-26T06:46:58;128.70;;;58.87;;
3131;SDS011;62090;52.330;9.104;2023-01-26T06:49:28;130.38;;;57.95;;
3131;SDS011;62090;52.330;9.104;2023-01-26T06:52:04;126.33;;;57.50;;
3131;SDS011;62090;52.330;9.104;2023-01-26T06:54:51;127.70;;;58.30;;
3131;SDS011;62090;52.330;9.104;2023-01-26T06:57:40;124.20;;;57.83;;
3131;SDS011;62090;52.330;9.104;2023-01-26T07:00:28;124.33;;;54.97;;
3131;SDS011;62090;52.330;9.104;2023-01-26T07:03:17;121.37;;;54.30;;
3131;SDS011;62090;52.330;9.104;2023-01-26T07:05:47;121.73;;;56.90;;
3131;SDS011;62090;52.330;9.104;2023-01-26T07:08:19;123.20;;;57.00;;
3131;SDS011;62090;52.330;9.104;2023-01-26T07:10:48;110.70;;;51.47;;
3131;SDS011;62090;52.330;9.104;2023-01-26T07:13:19;120.97;;;57.10;;
3131;SDS011;62090;52.330;9.104;2023-01-26T07:15:48;113.18;;;53.53;;
3131;SDS011;62090;52.330;9.104;2023-01-26T07:18:18;126.87;;;56.40;;
3131;SDS011;62090;52.330;9.104;2023-01-26T07:20:48;123.63;;;54.67;;
3131;SDS011;62090;52.330;9.104;2023-01-26T07:23:20;134.93;;;58.42;;
3131;SDS011;62090;52.330;9.104;2023-01-26T07:25:50;121.13;;;55.87;;
3131;SDS011;62090;52.330;9.104;2023-01-26T07:28:19;127.43;;;55.87;;
3131;SDS011;62090;52.330;9.104;2023-01-26T07:30:51;117.33;;;53.70;;
3131;SDS011;62090;52.330;9.104;2023-01-26T07:33:21;119.53;;;54.63;;
3131;SDS011;62090;52.330;9.104;2023-01-26T07:35:51;125.03;;;54.60;;
3131;SDS011;62090;52.330;9.104;2023-01-26T07:38:23;119.37;;;54.13;;
3131;SDS011;62090;52.330;9.104;2023-01-26T07:40:54;120.93;;;53.80;;
3131;SDS011;62090;52.330;9.104;2023-01-26T07:43:25;124.25;;;54.63;;
3131;SDS011;62090;52.330;9.104;2023-01-26T07:45:54;117.30;;;51.47;;
3131;SDS011;62090;52.330;9.104;2023-01-26T07:48:24;117.13;;;52.97;;
3131;SDS011;62090;52.330;9.104;2023-01-26T07:50:58;121.00;;;53.70;;
3131;SDS011;62090;52.330;9.104;2023-01-26T07:53:31;118.35;;;52.95;;
3131;SDS011;62090;52.330;9.104;2023-01-26T07:56:06;126.63;;;52.55;;
3131;SDS011;62090;52.330;9.104;2023-01-26T07:58:37;120.45;;;53.60;;
3131;SDS011;62090;52.330;9.104;2023-01-26T08:01:08;113.93;;;52.13;;
3131;SDS011;62090;52.330;9.104;2023-01-26T08:03:39;118.70;;;52.17;;
3131;SDS011;62090;52.330;9.104;2023-01-26T08:06:11;107.10;;;49.58;;
3131;SDS011;62090;52.330;9.104;2023-01-26T08:08:45;114.43;;;51.57;;
3131;SDS011;62090;52.330;9.104;2023-01-26T08:11:18;115.03;;;53.00;;
3131;SDS011;62090;52.330;9.104;2023-01-26T08:13:49;130.93;;;52.78;;
3131;SDS011;62090;52.330;9.104;2023-01-26T08:16:19;121.65;;;51.50;;
3131;SDS011;62090;52.330;9.104;2023-01-26T08:18:49;125.80;;;53.83;;
3131;SDS011;62090;52.330;9.104;2023-01-26T08:21:19;118.50;;;50.77;;
3131;SDS011;62090;52.330;9.104;2023-01-26T08:23:51;117.97;;;50.23;;
3131;SDS011;62090;52.330;9.104;2023-01-26T08:26:21;118.87;;;50.50;;
3131;SDS011;62090;52.330;9.104;2023-01-26T08:28:50;118.18;;;50.40;;
3131;SDS011;62090;52.330;9.104;2023-01-26T08:31:20;116.57;;;49.13;;
3131;SDS011;62090;52.330;9.104;2023-01-26T08:33:51;108.63;;;47.37;;
3131;SDS011;62090;52.330;9.104;2023-01-26T08:36:21;116.27;;;49.60;;
3131;SDS011;62090;52.330;9.104;2023-01-26T08:38:54;115.53;;;48.47;;
3131;SDS011;62090;52.330;9.104;2023-01-26T08:41:23;118.70;;;49.25;;
3131;SDS011;62090;52.330;9.104;2023-01-26T08:43:53;108.70;;;47.80;;
3131;SDS011;62090;52.330;9.104;2023-01-26T08:46:24;108.70;;;49.97;;
3131;SDS011;62090;52.330;9.104;2023-01-26T08:48:54;109.17;;;50.87;;
3131;SDS011;62090;52.330;9.104;2023-01-26T08:51:26;106.53;;;48.77;;
3131;SDS011;62090;52.330;9.104;2023-01-26T08:53:58;113.93;;;49.30;;
3131;SDS011;62090;52.330;9.104;2023-01-26T08:56:27;114.40;;;50.97;;
3131;SDS011;62090;52.330;9.104;2023-01-26T08:58:57;111.20;;;50.80;;
3131;SDS011;62090;52.330;9.104;2023-01-26T09:01:27;114.93;;;53.30;;
3131;SDS011;62090;52.330;9.104;2023-01-26T09:03:56;118.37;;;49.20;;
3131;SDS011;62090;52.330;9.104;2023-01-26T09:06:27;115.03;;;51.47;;
3131;SDS011;62090;52.330;9.104;2023-01-26T09:09:01;118.00;;;52.70;;
3131;SDS011;62090;52.330;9.104;2023-01-26T09:11:30;118.57;;;50.93;;
3131;SDS011;62090;52.330;9.104;2023-01-26T09:14:03;123.22;;;51.67;;
3131;SDS011;62090;52.330;9.104;2023-01-26T09:16:32;116.50;;;51.07;;
3131;SDS011;62090;52.330;9.104;2023-01-26T09:19:02;114.63;;;51.83;;
3131;SDS011;62090;52.330;9.104;2023-01-26T09:21:32;107.87;;;50.73;;
3131;SDS011;62090;52.330;9.104;2023-01-26T09:24:04;124.03;;;53.30;;
3131;SDS011;62090;52.330;9.104;2023-01-26T09:26:34;124.93;;;52.97;;
3131;SDS011;62090;52.330;9.104;2023-01-26T09:29:04;116.20;;;55.33;;
3131;SDS011;62090;52.330;9.104;2023-01-26T09:31:34;119.07;;;54.57;;
3131;SDS011;62090;52.330;9.104;2023-01-26T09:34:04;116.13;;;52.23;;
3131;SDS011;62090;52.330;9.104;2023-01-26T09:36:34;128.43;;;52.40;;
3131;SDS011;62090;52.330;9.104;2023-01-26T09:39:09;110.33;;;50.20;;
3131;SDS011;62090;52.330;9.104;2023-01-26T09:41:43;122.40;;;52.40;;
3131;SDS011;62090;52.330;9.104;2023-01-26T09:44:21;114.07;;;50.80;;
3131;SDS011;62090;52.330;9.104;2023-01-26T09:46:55;123.37;;;53.37;;
3131;SDS011;62090;52.330;9.104;2023-01-26T09:49:35;131.10;;;53.27;;
3131;SDS011;62090;52.330;9.104;2023-01-26T09:52:17;122.57;;;51.17;;
3131;SDS011;62090;52.330;9.104;2023-01-26T09:54:57;130.60;;;52.60;;
3131;SDS011;62090;52.330;9.104;2023-01-26T09:57:31;126.93;;;52.00;;
3131;SDS011;62090;52.330;9.104;2023-01-26T10:00:05;112.23;;;49.40;;
3131;SDS011;62090;52.330;9.104;2023-01-26T10:02:41;120.37;;;50.73;;
3131;SDS011;62090;52.330;9.104;2023-01-26T10:05:24;116.70;;;51.83;;
3131;SDS011;62090;52.330;9.104;2023-01-26T10:08:07;128.93;;;52.00;;
3131;SDS011;62090;52.330;9.104;2023-01-26T10:10:43;129.47;;;54.00;;
3131;SDS011;62090;52.330;9.104;2023-01-26T10:13:15;117.30;;;50.10;;
3131;SDS011;62090;52.330;9.104;2023-01-26T10:15:47;135.33;;;54.17;;
3131;SDS011;62090;52.330;9.104;2023-01-26T10:18:21;125.17;;;52.47;;
3131;SDS011;62090;52.330;9.104;2023-01-26T10:20:57;130.07;;;52.77;;
3131;SDS011;62090;52.330;9.104;2023-01-26T10:23:30;133.83;;;56.20;;
3131;SDS011;62090;52.330;9.104;2023-01-26T10:26:08;137.27;;;53.60;;
3131;SDS011;62090;52.330;9.104;2023-01-26T10:28:41;138.10;;;52.57;;
3131;SDS011;62090;52.330;9.104;2023-01-26T10:31:13;129.97;;;53.60;;
3131;SDS011;62090;52.330;9.104;2023-01-26T10:33:47;122.83;;;51.67;;
3131;SDS011;62090;52.330;9.104;2023-01-26T10:36:20;127.37;;;53.90;;
3131;SDS011;62090;52.330;9.104;2023-01-26T10:38:50;134.40;;;55.20;;
3131;SDS011;62090;52.330;9.104;2023-01-26T10:41:24;136.80;;;55.17;;
3131;SDS011;62090;52.330;9.104;2023-01-26T10:43:55;131.53;;;55.57;;
3131;SDS011;62090;52.330;9.104;2023-01-26T10:46:29;137.93;;;55.80;;
3131;SDS011;62090;52.330;9.104;2023-01-26T10:49:01;150.03;;;55.80;;
3131;SDS011;62090;52.330;9.104;2023-01-26T10:51:42;139.63;;;56.47;;
3131;SDS011;62090;52.330;9.104;2023-01-26T10:54:20;127.67;;;55.73;;
3131;SDS011;62090;52.330;9.104;2023-01-26T10:56:54;120.80;;;52.23;;
3131;SDS011;62090;52.330;9.104;2023-01-26T10:59:30;127.97;;;53.90;;
3131;SDS011;62090;52.330;9.104;2023-01-26T11:02:07;131.83;;;53.10;;
3131;SDS011;62090;52.330;9.104;2023-01-26T11:05:02;124.43;;;51.80;;
3131;SDS011;62090;52.330;9.104;2023-01-26T11:07:44;123.00;;;54.10;;
3131;SDS011;62090;52.330;9.104;2023-01-26T11:10:16;124.07;;;52.13;;
3131;SDS011;62090;52.330;9.104;2023-01-26T11:13:05;128.80;;;51.43;;
3131;SDS011;62090;52.330;9.104;2023-01-26T11:15:37;122.07;;;49.17;;
3131;SDS011;62090;52.330;9.104;2023-01-26T11:18:12;121.47;;;51.93;;
3131;SDS011;62090;52.330;9.104;2023-01-26T11:20:50;113.60;;;48.17;;
3131;SDS011;62090;52.330;9.104;2023-01-26T11:23:33;113.77;;;48.10;;
3131;SDS011;62090;52.330;9.104;2023-01-26T11:32:29;82.93;;;37.90;;
3131;SDS011;62090;52.330;9.104;2023-01-26T11:35:11;94.53;;;42.47;;
3131;SDS011;62090;52.330;9.104;2023-01-26T11:37:51;87.20;;;36.57;;
3131;SDS011;62090;52.330;9.104;2023-01-26T11:40:31;75.30;;;35.37;;
3131;SDS011;62090;52.330;9.104;2023-01-26T11:43:16;80.07;;;35.10;;
3131;SDS011;62090;52.330;9.104;2023-01-26T11:46:13;73.90;;;33.23;;
3131;SDS011;62090;52.330;9.104;2023-01-26T11:48:55;82.10;;;34.33;;
3131;SDS011;62090;52.330;9.104;2023-01-26T11:51:39;88.00;;;37.63;;
3131;SDS011;62090;52.330;9.104;2023-01-26T11:54:23;78.77;;;35.90;;
3131;SDS011;62090;52.330;9.104;2023-01-26T11:57:08;78.00;;;33.93;;
3131;SDS011;62090;52.330;9.104;2023-01-26T11:59:50;75.90;;;34.37;;
3131;SDS011;62090;52.330;9.104;2023-01-26T12:02:27;83.03;;;34.93;;
3131;SDS011;62090;52.330;9.104;2023-01-26T12:05:01;80.63;;;34.50;;
3131;SDS011;62090;52.330;9.104;2023-01-26T12:07:35;81.37;;;33.67;;
3131;SDS011;62090;52.330;9.104;2023-01-26T12:10:23;77.73;;;32.97;;
3131;SDS011;62090;52.330;9.104;2023-01-26T12:12:59;75.67;;;31.00;;
3131;SDS011;62090;52.330;9.104;2023-01-26T12:15:36;84.10;;;32.50;;
3131;SDS011;62090;52.330;9.104;2023-01-26T12:18:16;84.67;;;34.80;;
3131;SDS011;62090;52.330;9.104;2023-01-26T12:21:10;81.10;;;30.93;;
3131;SDS011;62090;52.330;9.104;2023-01-26T12:23:42;71.30;;;30.17;;
3131;SDS011;62090;52.330;9.104;2023-01-26T12:26:16;77.40;;;32.33;;
3131;SDS011;62090;52.330;9.104;2023-01-26T12:28:59;67.07;;;28.87;;
3131;SDS011;62090;52.330;9.104;2023-01-26T12:31:37;66.93;;;30.23;;
3131;SDS011;62090;52.330;9.104;2023-01-26T12:34:16;66.63;;;29.47;;
3131;SDS011;62090;52.330;9.104;2023-01-26T12:36:56;73.53;;;31.27;;
3131;SDS011;62090;52.330;9.104;2023-01-26T12:39:42;81.50;;;36.37;;
3131;SDS011;62090;52.330;9.104;2023-01-26T12:42:18;97.13;;;42.37;;
3131;SDS011;62090;52.330;9.104;2023-01-26T12:44:57;66.00;;;28.77;;
3131;SDS011;62090;52.330;9.104;2023-01-26T12:47:29;55.40;;;27.70;;
3131;SDS011;62090;52.330;9.104;2023-01-26T12:50:05;51.47;;;25.53;;
3131;SDS011;62090;52.330;9.104;2023-01-26T12:52:44;51.73;;;24.77;;
3131;SDS011;62090;52.330;9.104;2023-01-26T12:55:19;50.90;;;25.77;;
3131;SDS011;62090;52.330;9.104;2023-01-26T12:57:53;48.40;;;23.30;;
3131;SDS011;62090;52.330;9.104;2023-01-26T13:00:27;49.80;;;24.53;;
3131;SDS011;62090;52.330;9.104;2023-01-26T13:03:00;47.03;;;22.67;;
3131;SDS011;62090;52.330;9.104;2023-01-26T13:05:36;46.27;;;21.90;;
3131;SDS011;62090;52.330;9.104;2023-01-26T13:14:26;46.70;;;22.07;;
3131;SDS011;62090;52.330;9.104;2023-01-26T13:19:58;50.30;;;22.70;;
3131;SDS011;62090;52.330;9.104;2023-01-26T13:22:45;45.43;;;22.27;;
3131;SDS011;62090;52.330;9.104;2023-01-26T13:25:16;47.40;;;22.73;;
3131;SDS011;62090;52.330;9.104;2023-01-26T13:27:53;39.87;;;19.87;;
3131;SDS011;62090;52.330;9.104;2023-01-26T13:33:14;44.17;;;22.03;;
3131;SDS011;62090;52.330;9.104;2023-01-26T13:35:47;50.97;;;23.03;;
3131;SDS011;62090;52.330;9.104;2023-01-26T13:38:23;49.00;;;20.90;;
3131;SDS011;62090;52.330;9.104;2023-01-26T13:40:58;45.33;;;22.00;;
3131;SDS011;62090;52.330;9.104;2023-01-26T13:43:31;45.20;;;19.67;;
3131;SDS011;62090;52.330;9.104;2023-01-26T13:46:12;45.20;;;20.53;;
3131;SDS011;62090;52.330;9.104;2023-01-26T13:48:47;53.53;;;22.57;;
3131;SDS011;62090;52.330;9.104;2023-01-26T13:51:18;42.77;;;20.07;;
3131;SDS011;62090;52.330;9.104;2023-01-26T13:53:59;48.17;;;20.10;;
3131;SDS011;62090;52.330;9.104;2023-01-26T13:56:32;45.43;;;20.10;;
3131;SDS011;62090;52.330;9.104;2023-01-26T13:59:05;43.70;;;20.47;;
3131;SDS011;62090;52.330;9.104;2023-01-26T14:01:43;41.17;;;19.63;;
3131;SDS011;62090;52.330;9.104;2023-01-26T14:04:15;49.87;;;22.13;;
3131;SDS011;62090;52.330;9.104;2023-01-26T14:06:48;50.33;;;21.80;;
3131;SDS011;62090;52.330;9.104;2023-01-26T14:09:24;44.80;;;20.60;;
3131;SDS011;62090;52.330;9.104;2023-01-26T14:11:57;51.43;;;20.43;;
3131;SDS011;62090;52.330;9.104;2023-01-26T14:14:30;55.20;;;22.00;;
3131;SDS011;62090;52.330;9.104;2023-01-26T14:17:05;49.70;;;21.53;;
3131;SDS011;62090;52.330;9.104;2023-01-26T14:19:38;46.17;;;21.30;;
3131;SDS011;62090;52.330;9.104;2023-01-26T14:22:11;48.00;;;20.20;;
3131;SDS011;62090;52.330;9.104;2023-01-26T14:24:49;48.57;;;21.13;;
3131;SDS011;62090;52.330;9.104;2023-01-26T14:27:31;49.90;;;21.60;;
3131;SDS011;62090;52.330;9.104;2023-01-26T14:30:19;50.17;;;20.10;;
3131;SDS011;62090;52.330;9.104;2023-01-26T14:32:53;43.27;;;19.90;;
3131;SDS011;62090;52.330;9.104;2023-01-26T14:35:26;43.77;;;19.53;;
3131;SDS011;62090;52.330;9.104;2023-01-26T14:38:10;41.87;;;18.73;;
3131;SDS011;62090;52.330;9.104;2023-01-26T14:40:47;42.63;;;19.83;;
3131;SDS011;62090;52.330;9.104;2023-01-26T14:43:18;43.00;;;19.70;;
3131;SDS011;62090;52.330;9.104;2023-01-26T14:45:49;41.00;;;18.00;;
3131;SDS011;62090;52.330;9.104;2023-01-26T14:48:24;46.37;;;21.10;;
3131;SDS011;62090;52.330;9.104;2023-01-26T14:51:00;44.57;;;19.57;;
3131;SDS011;62090;52.330;9.104;2023-01-26T14:53:34;43.97;;;19.97;;
3131;SDS011;62090;52.330;9.104;2023-01-26T14:56:12;48.20;;;21.13;;
3131;SDS011;62090;52.330;9.104;2023-01-26T14:58:48;48.00;;;21.03;;
3131;SDS011;62090;52.330;9.104;2023-01-26T15:01:20;50.27;;;21.13;;
3131;SDS011;62090;52.330;9.104;2023-01-26T15:03:55;52.40;;;24.70;;
3131;SDS011;62090;52.330;9.104;2023-01-26T15:06:28;60.13;;;25.20;;
3131;SDS011;62090;52.330;9.104;2023-01-26T15:09:00;43.00;;;20.83;;
3131;SDS011;62090;52.330;9.104;2023-01-26T15:11:35;54.67;;;22.73;;
3131;SDS011;62090;52.330;9.104;2023-01-26T15:14:28;48.40;;;21.73;;
3131;SDS011;62090;52.330;9.104;2023-01-26T15:17:00;48.43;;;20.07;;
3131;SDS011;62090;52.330;9.104;2023-01-26T15:19:37;50.40;;;20.97;;
3131;SDS011;62090;52.330;9.104;2023-01-26T15:22:17;62.60;;;21.00;;
3131;SDS011;62090;52.330;9.104;2023-01-26T15:24:59;71.37;;;21.37;;